createdAt,value
2024-04-22T00:01:09.226Z,1.30
2024-04-22T00:03:35.438Z,1.13
2024-04-22T00:06:01.684Z,1.00
2024-04-22T00:08:28.260Z,0.93
2024-04-22T00:11:04.402Z,1.10
2024-04-22T00:13:31.909Z,1.03
2024-04-22T00:15:58.456Z,1.30
2024-04-22T00:18:24.654Z,1.33
2024-04-22T00:20:50.844Z,1.20
2024-04-22T00:23:17.108Z,1.40
2024-04-22T00:25:43.716Z,1.50
2024-04-22T00:28:09.928Z,1.40
2024-04-22T00:30:36.194Z,1.20
2024-04-22T00:33:02.548Z,1.70
2024-04-22T00:35:28.832Z,1.40
2024-04-22T00:37:55.032Z,1.60
2024-04-22T00:40:21.165Z,1.40
2024-04-22T00:42:47.681Z,1.40
2024-04-22T00:45:13.931Z,1.50
2024-04-22T00:47:40.196Z,1.27
2024-04-22T00:50:08.282Z,1.70
2024-04-22T00:52:34.721Z,1.97
2024-04-22T00:55:00.877Z,1.30
2024-04-22T00:57:27.279Z,1.67
2024-04-22T00:59:53.791Z,2.07
2024-04-22T01:02:20.187Z,1.77
2024-04-22T01:04:46.729Z,0.83
2024-04-22T01:07:13.152Z,1.60
2024-04-22T01:09:39.392Z,1.67
2024-04-22T01:12:05.774Z,2.30
2024-04-22T01:14:31.891Z,1.60
2024-04-22T01:16:58.308Z,2.00
2024-04-22T01:19:24.585Z,2.20
2024-04-22T01:21:57.302Z,2.73
2024-04-22T01:24:24.083Z,2.10
2024-04-22T01:26:51.232Z,2.23
2024-04-22T01:29:17.349Z,1.63
2024-04-22T01:31:43.637Z,2.10
2024-04-22T01:34:10.447Z,2.30
2024-04-22T01:36:41.618Z,2.43
2024-04-22T01:39:11.143Z,1.27
2024-04-22T01:41:37.437Z,2.40
2024-04-22T01:44:03.704Z,2.43
2024-04-22T01:46:30.020Z,2.13
2024-04-22T01:48:56.248Z,2.07
2024-04-22T01:51:25.481Z,2.40
2024-04-22T01:53:51.752Z,2.63
2024-04-22T01:56:17.904Z,2.30
2024-04-22T01:58:45.644Z,2.80
2024-04-22T02:01:11.895Z,2.53
2024-04-22T02:03:38.080Z,2.00
2024-04-22T02:06:04.468Z,2.27
2024-04-22T02:08:30.813Z,2.77
2024-04-22T02:10:57.186Z,2.43
2024-04-22T02:13:24.166Z,2.30
2024-04-22T02:15:50.356Z,2.60
2024-04-22T02:18:18.067Z,2.13
2024-04-22T02:20:44.882Z,3.13
2024-04-22T02:23:11.054Z,2.77
2024-04-22T02:25:37.312Z,1.80
2024-04-22T02:28:03.636Z,2.10
2024-04-22T02:30:29.791Z,2.67
2024-04-22T02:32:56.088Z,2.13
2024-04-22T02:35:22.481Z,2.43
2024-04-22T02:37:48.697Z,1.87
2024-04-22T02:40:15.040Z,2.40
2024-04-22T02:42:41.576Z,2.30
2024-04-22T02:45:07.918Z,1.97
2024-04-22T02:47:34.161Z,2.00
2024-04-22T02:50:00.630Z,1.50
2024-04-22T02:52:26.859Z,2.10
2024-04-22T02:54:53.815Z,2.53
2024-04-22T02:57:20.082Z,1.50
2024-04-22T02:59:46.282Z,1.73
2024-04-22T03:02:12.478Z,1.97
2024-04-22T03:04:38.690Z,2.30
2024-04-22T03:07:06.348Z,2.40
2024-04-22T03:09:40.871Z,2.00
2024-04-22T03:12:07.694Z,1.70
2024-04-22T03:14:33.917Z,1.93
2024-04-22T03:17:00.282Z,1.70
2024-04-22T03:19:26.693Z,1.90
2024-04-22T03:21:56.188Z,2.20
2024-04-22T03:24:23.982Z,2.30
2024-04-22T03:26:50.147Z,2.33
2024-04-22T03:29:18.056Z,2.23
2024-04-22T03:31:44.373Z,2.37
2024-04-22T03:34:10.589Z,2.17
2024-04-22T03:36:37.962Z,1.97
2024-04-22T03:39:04.093Z,2.77
2024-04-22T03:41:30.362Z,2.40
2024-04-22T03:43:57.777Z,2.50
2024-04-22T03:46:43.550Z,2.37
2024-04-22T03:49:28.695Z,2.30
2024-04-22T03:52:04.988Z,2.40
2024-04-22T03:54:31.379Z,2.53
2024-04-22T03:56:57.585Z,2.87
2024-04-22T03:59:23.817Z,2.87
2024-04-22T04:01:50.192Z,2.20
2024-04-22T04:04:17.179Z,2.70
2024-04-22T04:06:45.701Z,2.03
2024-04-22T04:09:14.799Z,2.37
2024-04-22T04:11:41.374Z,2.93
2024-04-22T04:14:10.682Z,2.87
2024-04-22T04:16:37.384Z,2.03
2024-04-22T04:19:03.744Z,2.50
2024-04-22T04:21:33.001Z,2.10
2024-04-22T04:24:00.174Z,2.43
2024-04-22T04:26:26.457Z,2.03
2024-04-22T04:28:59.075Z,1.93
2024-04-22T04:31:39.416Z,2.47
2024-04-22T04:34:05.726Z,2.15
2024-04-22T04:36:32.023Z,1.93
2024-04-22T04:38:58.223Z,3.72
2024-04-22T04:41:25.080Z,1.90
2024-04-22T04:43:52.931Z,2.10
2024-04-22T04:46:19.237Z,2.35
2024-04-22T04:48:47.026Z,2.08
2024-04-22T04:51:13.927Z,2.25
2024-04-22T04:53:48.006Z,1.65
2024-04-22T04:56:14.374Z,1.98
2024-04-22T04:58:44.877Z,1.60
2024-04-22T05:03:55.461Z,1.60
2024-04-22T05:09:05.058Z,1.90
2024-04-22T05:14:11.830Z,1.75
2024-04-22T05:19:29.651Z,1.50
2024-04-22T06:59:23.524Z,2.20
2024-04-22T07:01:51.818Z,2.13
2024-04-22T07:04:18.583Z,2.28
2024-04-22T07:06:44.975Z,2.00
2024-04-22T07:09:11.767Z,2.15
2024-04-22T07:11:47.645Z,1.90
2024-04-22T07:14:22.060Z,2.53
2024-04-22T07:16:56.403Z,2.03
2024-04-22T08:45:05.622Z,1.42
2024-04-22T08:47:40.903Z,1.48
2024-04-22T08:50:07.994Z,1.83
2024-04-22T09:00:41.480Z,1.30
2024-04-22T09:03:08.943Z,2.03
2024-04-22T09:05:38.534Z,1.27
2024-04-22T09:13:38.698Z,1.17
2024-04-22T09:18:49.079Z,1.35
2024-04-22T09:24:12.933Z,1.40
2024-04-22T09:29:27.185Z,1.23
2024-04-22T12:10:22.978Z,1.30
2024-04-22T12:12:49.365Z,1.50
2024-04-22T12:15:15.958Z,1.58
2024-04-22T12:17:42.422Z,1.40
2024-04-22T12:20:10.300Z,1.30
2024-04-22T12:22:37.797Z,2.08
2024-04-22T12:25:04.253Z,1.27
2024-04-22T12:27:31.322Z,1.85
2024-04-22T12:29:59.435Z,1.15
2024-04-22T12:32:27.460Z,1.50
2024-04-22T12:34:56.615Z,1.42
2024-04-22T12:37:23.324Z,1.20
2024-04-22T12:39:50.759Z,1.33
2024-04-22T12:42:18.477Z,1.38
2024-04-22T12:44:44.653Z,1.20
2024-04-22T12:47:29.644Z,0.90
2024-04-22T12:50:14.753Z,1.38
2024-04-22T12:52:41.329Z,1.58
2024-04-22T12:55:08.590Z,0.93
2024-04-22T12:57:36.228Z,1.25
2024-04-22T13:00:10.280Z,1.27
2024-04-22T13:02:36.829Z,0.93
2024-04-22T13:05:04.405Z,2.10
2024-04-22T13:07:41.122Z,1.83
2024-04-22T13:10:07.666Z,1.70
2024-04-22T13:12:36.633Z,1.77
2024-04-22T13:15:03.870Z,1.50
2024-04-22T13:17:30.367Z,6.63
2024-04-22T13:19:56.937Z,2.58
2024-04-22T13:22:23.735Z,1.80
2024-04-22T13:24:50.222Z,1.60
2024-04-22T13:27:16.838Z,1.42
2024-04-22T13:29:43.274Z,1.67
2024-04-22T13:32:10.857Z,1.40
2024-04-22T13:34:37.266Z,1.50
2024-04-22T13:37:09.805Z,1.30
2024-04-22T13:39:36.493Z,2.00
2024-04-22T13:42:04.153Z,1.92
2024-04-22T13:44:34.951Z,1.60
2024-04-22T13:49:28.198Z,1.42
2024-04-22T13:51:54.516Z,1.80
2024-04-22T13:54:20.913Z,1.38
2024-04-22T13:56:48.609Z,1.35
2024-04-22T13:59:15.964Z,1.60
2024-04-22T14:01:42.674Z,1.30
2024-04-22T14:04:09.359Z,1.48
2024-04-22T14:06:41.049Z,1.40
2024-04-22T14:09:10.902Z,1.58
2024-04-22T14:11:39.989Z,2.17
2024-04-22T14:14:10.704Z,1.00
2024-04-22T14:19:04.842Z,1.50
2024-04-22T14:21:31.311Z,1.13
2024-04-22T14:24:01.129Z,2.00
2024-04-22T14:26:33.163Z,1.13
2024-04-22T14:29:00.177Z,2.45
2024-04-22T14:31:33.565Z,1.48
2024-04-22T14:34:02.316Z,1.35
2024-04-22T14:36:53.657Z,1.50
2024-04-22T14:39:21.129Z,1.38
2024-04-22T14:41:50.864Z,1.10
2024-04-22T14:44:17.136Z,1.80
2024-04-22T14:46:44.675Z,1.50
2024-04-22T14:49:11.153Z,2.35
2024-04-22T14:51:37.348Z,1.70
2024-04-22T14:54:03.730Z,2.33
2024-04-22T14:56:30.021Z,2.72
2024-04-22T14:58:56.932Z,2.20
2024-04-22T15:01:25.505Z,1.40
2024-04-22T15:03:52.865Z,1.50
2024-04-22T15:34:56.732Z,1.40
2024-04-22T15:37:25.402Z,2.38
2024-04-22T15:39:51.831Z,3.20
2024-04-22T15:42:18.381Z,2.05
2024-04-22T15:44:45.046Z,1.77
2024-04-22T15:47:11.560Z,2.28
2024-04-22T15:49:38.508Z,1.88
2024-04-22T15:52:08.733Z,2.92
2024-04-22T15:54:36.455Z,1.58
2024-04-22T15:57:04.702Z,1.73
2024-04-22T15:59:31.514Z,1.98
2024-04-22T16:01:58.026Z,2.13
2024-04-22T16:04:24.485Z,1.77
2024-04-22T16:06:51.082Z,1.55
2024-04-22T16:09:17.648Z,1.17
2024-04-22T16:11:45.032Z,1.40
2024-04-22T16:14:12.157Z,2.92
2024-04-22T16:16:38.982Z,1.35
2024-04-22T16:19:13.211Z,2.03
2024-04-22T16:21:47.853Z,1.52
2024-04-22T16:24:15.335Z,1.40
2024-04-22T16:26:43.888Z,1.60
2024-04-22T16:29:11.561Z,1.83
2024-04-22T16:31:39.478Z,1.50
2024-04-22T16:34:05.926Z,1.17
2024-04-22T16:36:32.293Z,1.23
2024-04-22T16:38:58.555Z,1.10
2024-04-22T16:41:24.804Z,1.90
2024-04-22T16:43:51.550Z,2.40
2024-04-22T16:46:17.948Z,1.75
2024-04-22T16:48:44.535Z,2.30
2024-04-22T16:51:29.941Z,1.80
2024-04-22T16:53:59.382Z,2.30
2024-04-22T16:56:25.765Z,2.08
2024-04-22T16:58:52.204Z,1.60
2024-04-22T17:01:20.051Z,1.50
2024-04-22T17:03:46.594Z,1.95
2024-04-22T17:06:13.017Z,3.80
2024-04-22T17:08:39.650Z,1.90
2024-04-22T17:11:06.161Z,1.63
2024-04-22T17:13:33.957Z,2.70
2024-04-22T17:16:00.584Z,3.78
2024-04-22T17:18:30.027Z,1.85
2024-04-22T17:20:56.945Z,1.52
2024-04-22T17:23:24.116Z,1.67
2024-04-22T17:25:50.685Z,1.77
2024-04-22T17:28:21.029Z,1.25
2024-04-22T17:30:50.987Z,1.38
2024-04-22T17:33:17.371Z,1.30
2024-04-22T17:35:44.036Z,1.77
2024-04-22T17:38:11.374Z,1.95
2024-04-22T17:40:37.821Z,1.90
2024-04-22T17:43:04.116Z,2.00
2024-04-22T17:45:30.369Z,1.83
2024-04-22T17:47:56.574Z,1.77
2024-04-22T17:50:42.027Z,2.40
2024-04-22T17:53:08.539Z,2.28
2024-04-22T17:55:35.155Z,2.50
2024-04-22T17:58:01.352Z,1.95
2024-04-22T18:00:27.836Z,2.30
2024-04-22T18:02:54.271Z,3.40
2024-04-22T18:05:20.594Z,2.80
2024-04-22T18:07:48.727Z,2.53
2024-04-22T18:10:18.028Z,2.10
2024-04-22T18:12:44.418Z,2.15
2024-04-22T18:15:10.954Z,1.70
2024-04-22T18:17:39.554Z,2.72
2024-04-22T18:20:08.346Z,2.03
2024-04-22T18:22:41.296Z,2.30
2024-04-22T18:25:13.091Z,2.03
2024-04-22T18:27:39.222Z,1.95
2024-04-22T18:30:05.562Z,3.47
2024-04-22T18:32:32.003Z,2.97
2024-04-22T18:34:58.297Z,2.30
2024-04-22T18:37:24.507Z,2.28
2024-04-22T18:39:50.703Z,2.85
2024-04-22T18:42:16.924Z,2.35
2024-04-22T18:44:43.312Z,3.13
2024-04-22T18:47:09.548Z,2.58
2024-04-22T18:49:35.880Z,2.30
2024-04-22T18:52:02.015Z,3.97
2024-04-22T18:54:29.168Z,2.83
2024-04-22T18:56:55.355Z,1.80
2024-04-22T18:59:22.704Z,2.35
2024-04-22T19:01:48.923Z,2.00
2024-04-22T19:04:15.852Z,2.60
2024-04-22T19:06:42.981Z,2.67
2024-04-22T19:09:10.357Z,2.25
2024-04-22T19:11:38.206Z,1.90
2024-04-22T19:14:05.384Z,2.78
2024-04-22T19:16:33.123Z,2.75
2024-04-22T19:19:02.120Z,2.63
2024-04-22T19:21:28.233Z,2.35
2024-04-22T19:23:54.618Z,2.75
2024-04-22T19:26:20.917Z,3.40
2024-04-22T19:28:49.962Z,2.97
2024-04-22T19:31:16.287Z,3.33
2024-04-22T19:33:42.874Z,2.33
2024-04-22T19:36:09.213Z,2.38
2024-04-22T19:38:35.396Z,2.88
2024-04-22T19:41:01.546Z,2.22
2024-04-22T19:43:27.856Z,2.53
2024-04-22T19:45:54.105Z,2.50
2024-04-22T19:48:20.223Z,3.03
2024-04-22T19:50:50.573Z,2.28
2024-04-22T19:53:16.700Z,2.47
2024-04-22T19:55:43.224Z,2.70
2024-04-22T19:58:12.694Z,2.72
2024-04-22T20:00:39.153Z,2.55
2024-04-22T20:03:06.004Z,2.25
2024-04-22T20:05:32.622Z,2.40
2024-04-22T20:07:59.100Z,2.03
2024-04-22T20:10:25.430Z,2.55
2024-04-22T20:12:52.279Z,3.28
2024-04-22T20:15:28.642Z,3.17
2024-04-22T20:18:17.066Z,2.63
2024-04-22T20:20:45.730Z,1.98
2024-04-22T20:23:11.844Z,2.35
2024-04-22T20:25:38.555Z,2.40
2024-04-22T20:28:04.850Z,2.30
2024-04-22T20:30:31.000Z,2.78
2024-04-22T20:32:57.588Z,2.72
2024-04-22T20:35:23.870Z,4.53
2024-04-22T20:37:50.004Z,3.40
2024-04-22T20:40:16.206Z,2.75
2024-04-22T20:42:42.639Z,3.47
2024-04-22T20:45:08.933Z,3.65
2024-04-22T20:47:35.176Z,3.17
2024-04-22T20:50:01.384Z,3.80
2024-04-22T20:52:27.566Z,3.95
2024-04-22T20:54:53.756Z,3.38
2024-04-22T20:57:19.847Z,3.42
2024-04-22T20:59:45.947Z,3.63
2024-04-22T21:02:12.168Z,2.83
2024-04-22T21:04:38.313Z,3.20
2024-04-22T21:07:05.022Z,3.30
2024-04-22T21:09:31.442Z,3.05
2024-04-22T21:11:57.565Z,2.88
2024-04-22T21:14:23.714Z,3.30
2024-04-22T21:16:50.010Z,2.92
2024-04-22T21:19:20.468Z,2.70
2024-04-22T21:21:47.196Z,3.55
2024-04-22T21:24:13.479Z,3.00
2024-04-22T21:26:40.535Z,3.00
2024-04-22T21:29:06.628Z,2.60
2024-04-22T21:31:32.777Z,3.78
2024-04-22T21:36:30.012Z,3.70
2024-04-22T21:38:56.500Z,3.42
2024-04-22T21:41:23.781Z,3.50
2024-04-22T21:43:50.055Z,2.72
2024-04-22T21:46:16.196Z,2.72
2024-04-22T21:48:42.350Z,2.75
2024-04-22T21:51:11.573Z,3.22
2024-04-22T21:53:37.668Z,3.13
2024-04-22T21:56:10.185Z,3.13
2024-04-22T21:58:55.227Z,2.75
2024-04-22T22:01:40.315Z,3.10
2024-04-22T22:04:25.500Z,3.17
2024-04-22T22:07:10.552Z,2.85
2024-04-22T22:09:36.820Z,2.65
2024-04-22T22:12:03.084Z,2.97
2024-04-22T22:14:29.246Z,2.88
2024-04-22T22:16:55.397Z,2.83
2024-04-22T22:19:21.792Z,2.90
2024-04-22T22:21:48.198Z,3.67
2024-04-22T22:24:14.351Z,3.80
2024-04-22T22:26:40.430Z,2.65
2024-04-22T22:29:06.793Z,3.30
2024-04-22T22:31:33.064Z,4.05
2024-04-22T22:34:02.296Z,2.75
2024-04-22T22:36:29.246Z,2.58
2024-04-22T22:38:55.471Z,2.80
2024-04-22T22:41:24.406Z,3.03
2024-04-22T22:43:51.058Z,2.88
2024-04-22T22:46:17.266Z,3.15
2024-04-22T22:48:46.517Z,3.15
2024-04-22T22:51:18.000Z,2.78
2024-04-22T22:53:44.058Z,4.38
2024-04-22T22:56:10.195Z,2.67
2024-04-22T22:58:36.326Z,4.00
2024-04-22T23:01:02.769Z,3.67
2024-04-22T23:03:28.890Z,4.35
2024-04-22T23:05:54.995Z,3.28
2024-04-22T23:08:21.062Z,3.08
2024-04-22T23:10:47.178Z,3.20
2024-04-22T23:13:13.247Z,3.03
2024-04-22T23:15:39.699Z,2.90
2024-04-22T23:18:05.882Z,3.35
2024-04-22T23:20:35.868Z,3.28
2024-04-22T23:23:02.063Z,2.67
2024-04-22T23:25:28.240Z,2.80
2024-04-22T23:27:54.407Z,3.50
2024-04-22T23:30:20.458Z,3.40
2024-04-22T23:32:46.733Z,3.53
2024-04-22T23:35:12.901Z,3.28
2024-04-22T23:37:39.008Z,3.03
2024-04-22T23:40:05.449Z,3.15
2024-04-22T23:42:31.595Z,3.72
2024-04-22T23:44:57.772Z,3.70
2024-04-22T23:47:23.870Z,3.10
2024-04-22T23:49:49.921Z,4.30
2024-04-22T23:52:22.303Z,2.90
2024-04-22T23:54:48.578Z,3.30
2024-04-22T23:57:14.660Z,3.53
2024-04-22T23:59:40.770Z,3.35
